Time;durP1;ratioP1;P1;durP2;ratioP2;P2;SDS_P1;SDS_P2;PMS_P1;PMS_P2;Temp;Humidity;BMP_temperature;BMP_pressure;BME280_temperature;BME280_humidity;BME280_pressure;Samples;Min_cycle;Max_cycle;Signal;HPM_P1;HPM_P2
2022/05/22 00:00:34;;;;;;;2.77;0.80;;;;;;;12.60;69.25;100772.75;1710829;83;21045;-77
2022/05/22 00:03:00;;;;;;;2.33;0.80;;;;;;;12.59;69.26;100768.45;1717805;83;21123;-78
2022/05/22 00:05:26;;;;;;;2.70;0.83;;;;;;;12.57;69.27;100766.33;1698202;83;20906;-77
2022/05/22 00:07:52;;;;;;;1.55;0.60;;;;;;;12.57;69.30;100765.48;1705726;83;21093;-77
2022/05/22 00:10:20;;;;;;;4.78;0.95;;;;;;;12.56;69.36;100768.52;1717372;83;21040;-77
2022/05/22 00:12:48;;;;;;;1.37;0.80;;;;;;;12.57;69.35;100774.11;1690002;83;21128;-77
2022/05/22 00:15:16;;;;;;;1.80;0.40;;;;;;;12.54;69.32;100764.24;1689751;83;21052;-77
2022/05/22 00:17:43;;;;;;;0.75;0.62;;;;;;;12.51;69.31;100762.57;1717384;83;21055;-78
2022/05/22 00:20:11;;;;;;;2.80;0.60;;;;;;;12.48;69.36;100761.78;1711271;83;20969;-77
2022/05/22 00:22:38;;;;;;;1.22;0.68;;;;;;;12.39;69.45;100738.67;1717589;83;21048;-78
2022/05/22 00:25:10;;;;;;;1.40;0.50;;;;;;;12.51;69.46;100754.79;1710736;83;21060;-77
2022/05/22 00:27:34;;;;;;;1.62;0.70;;;;;;;12.52;69.44;100757.80;1717212;83;21072;-79
2022/05/22 00:30:00;;;;;;;0.67;0.60;;;;;;;12.52;69.51;100756.94;1710783;83;20988;-77
2022/05/22 00:32:26;;;;;;;3.70;0.67;;;;;;;12.49;69.46;100767.38;1718038;83;21008;-77
2022/05/22 00:34:52;;;;;;;0.80;0.50;;;;;;;12.48;69.51;100764.38;1711349;83;27235;-78
2022/05/22 00:37:20;;;;;;;1.45;0.65;;;;;;;12.45;69.47;100759.28;1700293;83;21041;-78
2022/05/22 00:39:46;;;;;;;2.15;0.60;;;;;;;12.43;69.55;100760.61;1715071;83;21003;-77
2022/05/22 00:42:23;;;;;;;3.10;0.80;;;;;;;12.43;69.58;100757.17;1710493;83;21017;-77
2022/05/22 00:44:50;;;;;;;2.25;0.80;;;;;;;12.40;69.60;100761.97;1710648;83;21093;-77
2022/05/22 00:47:16;;;;;;;6.03;0.60;;;;;;;12.35;69.50;100756.03;1712486;82;21028;-78
2022/05/22 00:49:45;;;;;;;3.50;0.57;;;;;;;12.33;69.65;100757.80;1712035;83;21061;-76
2022/05/22 00:52:20;;;;;;;2.30;0.75;;;;;;;12.34;69.62;100763.40;1711948;83;21056;-78
2022/05/22 00:55:00;;;;;;;1.52;0.55;;;;;;;12.33;69.61;100756.95;1693407;83;21060;-77
2022/05/22 00:57:35;;;;;;;1.85;0.57;;;;;;;12.31;69.62;100758.72;1711784;83;21104;-77
2022/05/22 01:00:07;;;;;;;0.85;0.70;;;;;;;12.26;69.67;100757.08;1711610;82;21024;-77
2022/05/22 01:05:20;;;;;;;1.30;0.62;;;;;;;12.18;69.72;100753.78;1703383;83;21024;-77
2022/05/22 01:07:47;;;;;;;1.07;0.60;;;;;;;12.16;69.79;100754.70;1711476;83;21037;-77
2022/05/22 01:10:14;;;;;;;1.15;0.78;;;;;;;12.15;69.73;100751.69;1711890;83;21104;-78
2022/05/22 01:12:43;;;;;;;2.90;0.80;;;;;;;12.12;69.82;100748.72;1709457;83;21056;-78
2022/05/22 01:15:13;;;;;;;2.12;0.80;;;;;;;12.10;69.82;100750.48;1696177;83;21076;-78
2022/05/22 01:17:47;;;;;;;3.47;0.80;;;;;;;12.09;69.83;100753.11;1696029;84;21682;-78
2022/05/22 01:20:16;;;;;;;0.90;0.70;;;;;;;12.05;69.87;100754.91;1704630;83;21024;-79
2022/05/22 01:22:42;;;;;;;2.27;1.20;;;;;;;12.07;69.93;100756.17;1712512;83;20945;-77
2022/05/22 01:25:10;;;;;;;4.37;1.10;;;;;;;12.06;69.93;100754.03;1713009;83;20980;-77
2022/05/22 01:27:38;;;;;;;4.05;1.22;;;;;;;12.05;69.92;100751.02;1711019;83;21060;-77
2022/05/22 01:30:09;;;;;;;2.75;0.90;;;;;;;12.08;70.01;100746.22;1712994;83;20929;-77
2022/05/22 01:32:37;;;;;;;1.90;1.00;;;;;;;12.10;70.00;100747.89;1710507;83;20901;-77
2022/05/22 01:35:05;;;;;;;2.85;0.90;;;;;;;12.11;70.03;100743.13;1713705;83;20909;-78
2022/05/22 01:37:30;;;;;;;;;;;;;;;12.15;70.07;100741.33;1713634;83;20965;-78
2022/05/22 01:39:57;;;;;;;3.37;0.98;;;;;;;12.14;70.17;100741.77;1710646;83;20097;-78
2022/05/22 01:42:23;;;;;;;3.70;1.10;;;;;;;12.11;69.99;100739.68;1713867;83;20941;-77
2022/05/22 01:44:49;;;;;;;4.40;1.70;;;;;;;12.11;70.12;100739.68;1713816;83;20961;-78
2022/05/22 01:47:21;;;;;;;2.65;1.35;;;;;;;12.09;70.09;100744.89;1708368;82;21032;-77
2022/05/22 01:49:47;;;;;;;2.37;1.10;;;;;;;12.09;70.09;100741.00;1712244;83;21109;-77
2022/05/22 01:52:13;;;;;;;4.03;1.47;;;;;;;12.09;70.10;100741.00;1712397;83;20989;-78
2022/05/22 01:54:40;;;;;;;3.47;1.35;;;;;;;12.08;70.13;100743.19;1711079;83;21020;-78
2022/05/22 01:57:06;;;;;;;3.10;1.22;;;;;;;12.06;70.11;100740.21;1712135;83;21049;-77
2022/05/22 01:59:32;;;;;;;3.33;1.30;;;;;;;12.04;70.15;100745.42;1712047;82;21302;-77
2022/05/22 02:01:58;;;;;;;5.10;1.40;;;;;;;12.03;70.19;100738.53;1711506;83;21074;-77
2022/05/22 02:04:24;;;;;;;4.20;1.20;;;;;;;12.03;70.20;100741.13;1712431;83;20922;-78
2022/05/22 02:09:35;;;;;;;3.33;1.30;;;;;;;11.98;70.23;100736.47;1711619;83;21080;-77
2022/05/22 02:12:01;;;;;;;2.85;1.20;;;;;;;11.96;70.20;100730.94;1712029;83;21114;-78
2022/05/22 02:14:27;;;;;;;2.67;1.20;;;;;;;11.95;70.25;100730.53;1712123;83;21028;-78
2022/05/22 02:16:55;;;;;;;3.10;1.70;;;;;;;11.94;70.32;100730.97;1710981;83;21477;-77
2022/05/22 02:19:21;;;;;;;3.10;1.40;;;;;;;11.92;70.27;100730.15;1695664;82;20902;-77
2022/05/22 02:21:47;;;;;;;5.20;1.30;;;;;;;11.92;70.31;100730.15;1693003;84;20859;-78
2022/05/22 02:24:13;;;;;;;5.20;1.40;;;;;;;11.90;70.34;100725.00;1704491;83;20980;-77
2022/05/22 02:26:39;;;;;;;2.33;1.20;;;;;;;11.90;70.37;100729.33;1712447;83;20988;-77
2022/05/22 02:29:09;;;;;;;3.30;1.22;;;;;;;11.88;70.33;100724.61;1697854;83;20933;-77
2022/05/22 02:31:35;;;;;;;4.03;1.45;;;;;;;11.86;70.38;100723.34;1694568;83;25257;-78
2022/05/22 02:34:02;;;;;;;2.23;1.30;;;;;;;11.86;70.41;100723.79;1712208;83;21546;-78
2022/05/22 02:36:28;;;;;;;4.25;1.50;;;;;;;11.83;70.42;100719.96;1713826;83;20913;-78
2022/05/22 02:38:55;;;;;;;2.45;1.40;;;;;;;11.83;70.46;100725.14;1713463;83;20949;-78
2022/05/22 02:41:22;;;;;;;5.97;1.60;;;;;;;11.81;70.44;100728.20;1711853;83;21068;-78
2022/05/22 02:43:48;;;;;;;2.62;1.40;;;;;;;11.78;70.46;100730.85;1712032;83;21096;-80
2022/05/22 02:46:17;;;;;;;5.60;1.60;;;;;;;11.74;70.45;100725.28;1705440;83;21036;-77
2022/05/22 02:48:43;;;;;;;2.17;1.45;;;;;;;11.69;70.42;100726.66;1686238;84;20925;-78
2022/05/22 02:51:17;;;;;;;4.15;1.45;;;;;;;11.66;70.47;100728.45;1704207;84;20956;-77
2022/05/22 02:53:43;;;;;;;3.30;1.40;;;;;;;11.63;70.56;100724.19;1704049;84;20953;-78
2022/05/22 02:56:14;;;;;;;4.30;1.70;;;;;;;11.60;70.60;100721.22;1704061;83;20911;-78
2022/05/22 02:58:40;;;;;;;3.83;1.60;;;;;;;11.59;70.61;100726.42;1715887;82;20913;-78
2022/05/22 03:01:06;;;;;;;4.25;1.72;;;;;;;11.59;70.66;100725.13;1716563;83;20898;-78
2022/05/22 03:03:40;;;;;;;3.92;1.82;;;;;;;11.60;70.72;100726.83;1716223;83;20941;-77
2022/05/22 03:08:52;;;;;;;4.20;1.87;;;;;;;11.63;70.73;100724.63;1716523;83;21571;-77
2022/05/22 03:11:18;;;;;;;5.45;1.90;;;;;;;11.64;70.78;100726.34;1716023;83;20893;-77
2022/05/22 03:13:44;;;;;;;4.30;2.27;;;;;;;11.65;70.79;100724.16;1715670;83;21333;-77
2022/05/22 03:16:10;;;;;;;4.57;2.17;;;;;;;11.67;70.86;100724.98;1715948;83;20921;-77
2022/05/22 03:18:36;;;;;;;3.50;2.17;;;;;;;11.69;70.86;100721.48;1685629;84;20912;-77
2022/05/22 03:21:05;;;;;;;6.22;2.25;;;;;;;11.73;70.93;100719.69;1677929;84;20970;-77
2022/05/22 03:23:31;;;;;;;4.25;2.02;;;;;;;11.75;70.92;100718.78;1636996;85;21030;-77
2022/05/22 03:25:58;;;;;;;7.40;2.03;;;;;;;11.76;71.00;100724.81;1684282;85;20920;-77
2022/05/22 03:28:24;;;;;;;8.55;2.47;;;;;;;11.77;71.03;100719.64;1683877;85;21464;-78
2022/05/22 03:30:50;;;;;;;9.23;2.03;;;;;;;11.81;71.07;100717.40;1689982;83;21524;-78
2022/05/22 03:33:16;;;;;;;5.00;2.08;;;;;;;11.86;71.09;100714.28;1683728;85;21391;-78
2022/05/22 03:35:43;;;;;;;11.03;2.40;;;;;;;11.86;71.09;100714.28;1682753;85;21139;-78
2022/05/22 03:38:09;;;;;;;9.70;1.97;;;;;;;11.93;71.08;100708.09;1682387;85;21147;-78
2022/05/22 03:40:48;;;;;;;4.17;1.92;;;;;;;11.93;71.08;100708.09;1682863;84;21510;-78
2022/05/22 03:43:16;;;;;;;3.75;1.82;;;;;;;11.92;71.08;100718.05;1683166;85;21071;-77
2022/05/22 03:45:45;;;;;;;6.33;1.80;;;;;;;11.95;71.13;100717.13;1682404;85;21075;-78
2022/05/22 03:48:12;;;;;;;5.73;1.80;;;;;;;11.99;71.20;100721.78;1705297;83;21008;-78
2022/05/22 03:50:39;;;;;;;5.00;1.90;;;;;;;12.01;71.19;100726.49;1644843;87;25848;-78
2022/05/22 03:53:05;;;;;;;5.10;2.50;;;;;;;12.03;71.23;100726.02;1646508;87;20984;-78
2022/05/22 03:55:32;;;;;;;3.75;1.75;;;;;;;12.05;71.26;100726.84;1669133;85;21112;-78
2022/05/22 03:57:58;;;;;;;7.20;2.50;;;;;;;12.07;71.31;100728.95;1667807;85;21088;-79
2022/05/22 04:00:26;;;;;;;7.83;1.80;;;;;;;12.08;71.29;100723.75;1668947;85;20992;-78
2022/05/22 04:02:53;;;;;;;4.65;1.60;;;;;;;12.13;71.28;100727.09;1668793;85;20996;-78
2022/05/22 04:05:19;;;;;;;4.20;1.75;;;;;;;12.12;71.25;100732.31;1653383;86;25126;-77
2022/05/22 04:07:48;;;;;;;5.35;2.22;;;;;;;12.10;71.25;100728.90;1668340;85;21571;-77
2022/05/22 04:10:16;;;;;;;5.78;2.02;;;;;;;12.12;71.35;100727.98;1668187;85;21855;-77
2022/05/22 04:12:43;;;;;;;4.65;1.70;;;;;;;12.16;71.37;100730.92;1668425;85;22173;-78
2022/05/22 04:15:15;;;;;;;5.67;2.25;;;;;;;12.20;71.37;100728.68;1666960;85;248650;-78
2022/05/22 04:17:41;;;;;;;7.28;2.22;;;;;;;12.23;71.36;100740.28;1661284;85;20984;-79
2022/05/22 04:20:07;;;;;;;4.60;1.50;;;;;;;12.27;71.40;100733.30;1668697;85;21068;-79
2022/05/22 04:25:10;;;;;;;11.50;1.90;;;;;;;12.32;71.41;100739.23;1668546;85;20957;-78
2022/05/22 04:25:11;;;;;;;7.72;1.87;;;;;;;12.36;71.36;100738.29;1666316;85;21105;-78
2022/05/22 04:27:42;;;;;;;4.72;1.60;;;;;;;12.36;71.32;100733.10;1667907;85;21399;-78
2022/05/22 04:30:18;;;;;;;6.78;1.80;;;;;;;12.38;71.41;100734.37;1659940;85;20909;-78
2022/05/22 04:32:39;;;;;;;3.72;1.25;;;;;;;12.41;71.39;100727.81;1669724;85;20925;-79
2022/05/22 04:35:08;;;;;;;6.35;1.67;;;;;;;12.52;71.48;100732.30;1655395;86;21453;-79
2022/05/22 04:37:34;;;;;;;6.65;1.40;;;;;;;12.64;71.47;100728.58;1663826;85;20897;-79
2022/05/22 04:40:00;;;;;;;15.70;1.77;;;;;;;12.72;71.50;100734.45;1669874;85;21446;-79
2022/05/22 04:42:26;;;;;;;6.27;2.00;;;;;;;12.79;71.52;100729.53;1669998;85;21947;-78
2022/05/22 04:44:52;;;;;;;8.23;2.30;;;;;;;12.86;71.44;100737.58;1670299;85;21710;-78
2022/05/22 04:47:18;;;;;;;8.30;1.83;;;;;;;12.90;71.48;100733.58;1679370;84;21546;-78
2022/05/22 04:49:48;;;;;;;4.60;1.40;;;;;;;12.95;71.46;100741.27;1686598;83;20886;-78
2022/05/22 04:52:15;;;;;;;5.28;1.57;;;;;;;12.95;71.41;100741.27;1714145;83;21382;-78
2022/05/22 04:54:40;;;;;;;6.50;1.50;;;;;;;12.97;71.38;100742.08;1710711;83;206028;-79
2022/05/22 04:57:06;;;;;;;4.07;1.50;;;;;;;13.00;71.46;100742.45;1714351;83;21002;-79
2022/05/22 04:59:33;;;;;;;8.27;1.83;;;;;;;13.03;71.39;100743.20;1714417;82;21422;-79
2022/05/22 05:01:59;;;;;;;8.83;2.12;;;;;;;13.03;71.39;100742.34;1714375;83;20918;-78
2022/05/22 05:04:25;;;;;;;4.47;2.20;;;;;;;13.03;71.42;100747.09;1713970;83;20890;-78
2022/05/22 05:06:52;;;;;;;4.47;1.90;;;;;;;13.04;71.40;100744.05;1714570;83;21616;-78
2022/05/22 05:09:19;;;;;;;7.53;1.72;;;;;;;13.05;71.39;100751.80;1714378;83;21255;-78
2022/05/22 05:11:45;;;;;;;4.97;1.70;;;;;;;13.02;71.30;100755.77;1688234;83;21059;-78
2022/05/22 05:14:11;;;;;;;4.17;1.60;;;;;;;12.93;71.24;100761.20;1696329;83;20948;-78
2022/05/22 05:16:36;;;;;;;4.80;1.60;;;;;;;12.88;71.31;100766.50;1712771;83;20967;-78
2022/05/22 05:19:02;;;;;;;4.40;1.50;;;;;;;12.86;71.31;100767.42;1712653;83;24997;-78
2022/05/22 05:21:35;;;;;;;5.00;1.40;;;;;;;12.83;71.34;100767.50;1712634;83;21582;-78
2022/05/22 05:24:01;;;;;;;9.47;1.73;;;;;;;12.83;71.34;100763.16;1712678;83;21056;-78
2022/05/22 05:26:27;;;;;;;5.00;1.70;;;;;;;12.89;71.41;100766.91;1713007;83;20862;-78
2022/05/22 05:28:53;;;;;;;5.40;1.60;;;;;;;12.98;71.38;100760.66;1712832;83;21485;-78
2022/05/22 05:31:19;;;;;;;5.92;1.65;;;;;;;13.05;71.44;100762.19;1713064;83;21028;-78
2022/05/22 05:33:45;;;;;;;6.33;1.53;;;;;;;13.57;71.99;100760.45;1712855;83;21785;-78
2022/05/22 05:36:12;;;;;;;4.43;1.30;;;;;;;14.38;72.05;100759.50;1712950;83;21658;-79
2022/05/22 05:38:38;;;;;;;7.55;1.32;;;;;;;15.27;72.00;100760.18;1700957;83;21622;-78
2022/05/22 05:41:04;;;;;;;9.43;1.53;;;;;;;15.82;71.40;100756.55;1693964;83;21766;-78
2022/05/22 05:43:30;;;;;;;8.55;1.85;;;;;;;15.99;71.20;100752.50;1703849;83;21583;-78
2022/05/22 05:45:56;;;;;;;2.67;1.17;;;;;;;16.52;71.55;100766.99;1705935;83;20894;-78
2022/05/22 05:48:22;;;;;;;6.03;2.07;;;;;;;16.78;71.03;100766.45;1697663;84;21260;-79
2022/05/22 05:50:48;;;;;;;4.33;1.23;;;;;;;16.78;70.92;100759.92;1702733;84;21047;-79
2022/05/22 05:53:14;;;;;;;2.70;1.03;;;;;;;16.64;70.77;100765.67;1702778;84;21603;-79
2022/05/22 05:55:47;;;;;;;2.87;1.12;;;;;;;16.39;70.62;100766.20;1684834;84;21356;-79
2022/05/22 05:58:12;;;;;;;3.47;1.20;;;;;;;16.11;70.67;100763.79;1714507;82;21056;-77
2022/05/22 06:00:39;;;;;;;3.60;1.33;;;;;;;15.89;70.50;100768.92;1714477;83;20870;-77
2022/05/22 06:03:07;;;;;;;3.25;1.12;;;;;;;15.71;70.55;100764.34;1715832;83;20866;-78
2022/05/22 06:05:33;;;;;;;4.72;1.12;;;;;;;15.58;70.57;100757.44;1699014;83;21112;-78
2022/05/22 06:07:59;;;;;;;2.43;1.13;;;;;;;15.51;70.52;100765.02;1698245;83;21044;-78
2022/05/22 06:10:25;;;;;;;4.47;1.43;;;;;;;15.52;70.56;100761.06;1713453;83;21769;-78
2022/05/22 06:12:51;;;;;;;2.05;1.25;;;;;;;15.57;70.33;100771.82;1697798;83;21592;-78
2022/05/22 06:15:17;;;;;;;4.67;1.43;;;;;;;15.61;70.35;100764.27;1684544;83;21660;-78
2022/05/22 06:17:48;;;;;;;4.97;1.23;;;;;;;15.70;70.13;100762.64;1707773;83;21061;-78
2022/05/22 06:20:18;;;;;;;4.30;1.42;;;;;;;15.62;69.91;100762.91;1716184;83;21641;-78
2022/05/22 06:22:44;;;;;;;2.12;1.00;;;;;;;15.60;69.94;100759.98;1699613;83;20964;-78
2022/05/22 06:25:14;;;;;;;4.75;1.37;;;;;;;15.61;69.99;100762.96;1704139;83;20910;-78
2022/05/22 06:27:43;;;;;;;3.55;1.27;;;;;;;15.69;69.92;100768.31;1716404;83;20874;-78
2022/05/22 06:30:13;;;;;;;5.37;1.12;;;;;;;15.68;69.69;100765.76;1716545;83;20929;-78
2022/05/22 06:32:43;;;;;;;4.05;1.10;;;;;;;15.76;69.81;100767.65;1714333;83;20917;-79
2022/05/22 06:35:12;;;;;;;2.62;1.37;;;;;;;15.94;69.67;100773.52;1716202;83;20889;-78
2022/05/22 06:37:38;;;;;;;2.70;1.20;;;;;;;16.10;69.68;100775.98;1715293;83;20988;-78
2022/05/22 06:40:07;;;;;;;5.15;1.15;;;;;;;16.27;69.45;100766.20;1711207;83;21532;-78
2022/05/22 06:42:37;;;;;;;6.42;1.60;;;;;;;16.33;69.27;100782.09;1699686;83;20925;-78
2022/05/22 06:45:11;;;;;;;2.58;1.02;;;;;;;16.25;69.06;100770.63;1716077;83;20934;-78
2022/05/22 06:47:38;;;;;;;3.52;1.35;;;;;;;16.28;69.24;100781.41;1715856;83;20912;-78
2022/05/22 06:50:10;;;;;;;3.92;1.37;;;;;;;16.30;68.88;100777.84;1714973;83;22279;-78
2022/05/22 06:52:36;;;;;;;5.30;1.65;;;;;;;16.32;68.86;100778.63;1712253;83;21016;-78
2022/05/22 06:55:04;;;;;;;3.62;1.35;;;;;;;16.33;68.75;100776.42;1712439;83;21119;-78
2022/05/22 06:57:31;;;;;;;6.12;1.80;;;;;;;16.28;68.70;100773.13;1712463;83;21032;-78
2022/05/22 06:59:59;;;;;;;4.85;1.30;;;;;;;16.29;68.64;100776.59;1712819;82;26507;-78
2022/05/22 07:02:27;;;;;;;3.00;1.10;;;;;;;16.20;68.48;100774.71;1713238;83;20968;-78
2022/05/22 07:04:59;;;;;;;3.22;1.32;;;;;;;16.18;68.47;100775.67;1712827;83;21780;-78
2022/05/22 07:07:26;;;;;;;2.98;1.27;;;;;;;16.11;68.45;100779.45;1712496;83;21108;-78
2022/05/22 07:09:52;;;;;;;;;;;;;;;16.05;68.37;100781.82;1715222;83;21057;-78
2022/05/22 07:12:20;;;;;;;4.83;1.80;;;;;;;16.17;68.21;100784.41;1712337;83;20172;-78
2022/05/22 07:14:50;;;;;;;2.55;1.12;;;;;;;16.25;68.17;100777.16;1712874;83;21162;-78
2022/05/22 07:17:21;;;;;;;2.83;1.40;;;;;;;16.39;68.25;100777.95;1692350;83;21034;-78
2022/05/22 07:19:45;;;;;;;3.50;1.52;;;;;;;16.68;68.19;100779.47;1668750;85;20984;-79
2022/05/22 07:22:12;;;;;;;3.30;1.17;;;;;;;16.98;68.03;100774.35;1665111;86;21132;-78
2022/05/22 07:24:38;;;;;;;3.03;1.13;;;;;;;17.23;67.75;100768.96;1665789;85;21013;-78
2022/05/22 07:27:06;;;;;;;7.85;1.70;;;;;;;17.36;67.70;100771.92;1665779;86;21135;-78
2022/05/22 07:29:32;;;;;;;2.55;1.45;;;;;;;17.59;67.69;100760.05;1665232;86;21069;-78
2022/05/22 07:31:59;;;;;;;3.30;1.45;;;;;;;17.64;67.43;100764.62;1666776;86;21080;-78
2022/05/22 07:34:26;;;;;;;3.77;1.70;;;;;;;17.62;67.27;100761.22;1666831;85;21127;-78
2022/05/22 07:36:58;;;;;;;2.83;1.17;;;;;;;17.56;67.21;100765.86;1666727;85;21159;-78
2022/05/22 07:39:26;;;;;;;2.92;1.17;;;;;;;17.50;67.16;100761.28;1666407;85;21484;-78
2022/05/22 07:41:53;;;;;;;2.92;1.30;;;;;;;17.43;67.11;100755.92;1666594;86;21123;-78
2022/05/22 07:44:22;;;;;;;3.50;1.22;;;;;;;17.72;67.24;100759.92;1666398;85;21127;-78
2022/05/22 07:46:48;;;;;;;2.40;1.00;;;;;;;17.94;66.90;100754.60;1665249;85;21470;-78
2022/05/22 07:52:06;;;;;;;2.98;1.35;;;;;;;18.42;66.63;100746.28;1713276;83;20913;-78
2022/05/22 07:54:35;;;;;;;2.98;1.10;;;;;;;18.77;66.61;100736.77;1711984;83;21534;-78
2022/05/22 07:57:02;;;;;;;3.35;1.12;;;;;;;18.90;66.09;100744.89;1712932;83;20918;-78
2022/05/22 07:59:28;;;;;;;;;;;;;;;18.73;65.82;100749.63;1705924;83;21045;-78
2022/05/22 08:01:54;;;;;;;1.67;0.78;;;;;;;18.65;65.25;100743.93;1711824;83;20187;-78
2022/05/22 08:04:20;;;;;;;1.47;0.83;;;;;;;18.73;65.99;100740.45;1731603;82;21076;-78
2022/05/22 08:06:46;;;;;;;3.10;0.83;;;;;;;18.94;65.87;100742.51;1738333;82;21096;-79
2022/05/22 08:09:12;;;;;;;3.27;0.80;;;;;;;19.07;65.47;100741.45;1711283;83;21076;-79
2022/05/22 08:11:38;;;;;;;5.17;0.83;;;;;;;19.11;65.15;100737.75;1690099;83;21004;-79
2022/05/22 08:14:05;;;;;;;2.87;1.22;;;;;;;19.21;65.23;100741.63;1692651;83;21127;-79
2022/05/22 08:16:32;;;;;;;1.67;0.95;;;;;;;19.37;64.99;100731.19;1695450;83;21068;-79
2022/05/22 08:18:58;;;;;;;2.42;0.75;;;;;;;19.34;64.59;100738.74;1705340;83;21061;-79
2022/05/22 08:21:25;;;;;;;1.90;0.90;;;;;;;19.12;64.04;100742.92;1663384;83;44495;-78
2022/05/22 08:23:52;;;;;;;;;;;;;;;18.73;64.06;100743.53;1694751;83;21540;-78
2022/05/22 08:26:18;;;;;;;1.27;0.70;;;;;;;18.42;63.81;100746.73;1706539;83;20250;-77
2022/05/22 08:28:44;;;;;;;1.60;0.82;;;;;;;18.23;64.13;100739.34;1711694;83;21068;-79
2022/05/22 08:31:14;;;;;;;4.22;0.98;;;;;;;18.09;63.91;100745.22;1703941;83;21517;-78
2022/05/22 08:33:40;;;;;;;4.40;1.20;;;;;;;17.97;63.92;100743.16;1711573;83;21119;-78
2022/05/22 08:36:06;;;;;;;3.08;1.10;;;;;;;17.77;63.77;100742.72;1711850;83;21068;-78
2022/05/22 08:38:32;;;;;;;1.67;0.82;;;;;;;17.59;63.55;100748.73;1699980;83;22060;-78
2022/05/22 08:41:13;;;;;;;1.30;0.80;;;;;;;17.41;63.31;100746.44;1709063;83;20981;-78
2022/05/22 08:44:24;;;;;;;3.95;0.90;;;;;;;17.28;63.31;100747.41;1708353;83;21438;-78
2022/05/22 08:47:20;;;;;;;2.60;1.00;;;;;;;17.16;63.19;100745.30;1698092;83;21509;-78
2022/05/22 08:50:00;;;;;;;4.83;1.25;;;;;;;17.09;63.04;100746.49;1703829;82;21322;-78
2022/05/22 08:52:41;;;;;;;2.05;0.75;;;;;;;17.11;63.22;100742.05;1730103;82;21063;-78
2022/05/22 09:01:17;;;;;;;0.95;0.60;;;;;;;17.41;62.35;100742.52;1734078;82;21078;-78
2022/05/22 09:04:09;;;;;;;2.45;1.00;;;;;;;17.28;62.36;100750.02;1734843;82;21047;-78
2022/05/22 09:07:19;;;;;;;2.98;1.22;;;;;;;17.16;62.21;100753.14;1734442;82;20951;-78
2022/05/22 09:09:55;;;;;;;1.52;0.80;;;;;;;17.13;62.32;100754.14;1728678;82;21095;-77
2022/05/22 09:12:55;;;;;;;2.90;0.90;;;;;;;17.23;62.23;100757.20;1714102;83;21052;-77
2022/05/22 09:15:38;;;;;;;1.62;0.98;;;;;;;17.34;62.15;100761.53;1714241;83;21485;-78
2022/05/22 09:18:37;;;;;;;2.72;1.02;;;;;;;17.50;61.92;100757.82;1714738;83;20973;-78
2022/05/22 09:21:37;;;;;;;2.15;1.00;;;;;;;17.44;61.61;100751.54;1714308;83;21551;-78
2022/05/22 09:24:08;;;;;;;3.58;0.80;;;;;;;17.26;61.49;100762.76;1685637;84;21064;-78
2022/05/22 09:27:02;;;;;;;;;;;;;;;17.01;61.27;100760.32;1697051;83;21432;-78
2022/05/22 09:29:49;;;;;;;1.92;0.65;;;;;;;16.80;61.17;100774.62;1672212;85;20180;-78
2022/05/22 09:32:50;;;;;;;2.20;1.00;;;;;;;16.67;61.35;100772.54;1714291;83;21151;-78
2022/05/22 09:35:37;;;;;;;2.60;0.85;;;;;;;16.66;61.21;100757.78;1708146;83;21116;-78
2022/05/22 09:38:16;;;;;;;3.87;1.00;;;;;;;16.66;61.27;100770.84;1712247;83;21363;-78
2022/05/22 09:40:50;;;;;;;1.40;1.00;;;;;;;16.75;61.12;100762.65;1714273;83;21035;-78
2022/05/22 09:43:40;;;;;;;0.93;0.70;;;;;;;16.91;61.23;100769.43;1715556;83;20988;-78
2022/05/22 09:46:45;;;;;;;2.00;0.90;;;;;;;17.11;61.19;100763.81;1684927;83;21081;-78
2022/05/22 09:49:31;;;;;;;3.42;0.90;;;;;;;17.28;60.83;100756.55;1685263;83;21068;-79
2022/05/22 09:52:24;;;;;;;1.65;0.88;;;;;;;17.42;60.80;100755.98;1663405;84;21096;-79
2022/05/22 09:55:12;;;;;;;3.47;1.15;;;;;;;17.51;60.79;100755.14;1664517;86;20952;-79
2022/05/22 09:58:04;;;;;;;2.15;0.80;;;;;;;17.63;60.68;100753.77;1664500;85;27679;-79
2022/05/22 10:00:55;;;;;;;2.77;0.90;;;;;;;17.75;60.73;100753.25;1664655;86;21127;-78
2022/05/22 10:03:53;;;;;;;1.20;0.82;;;;;;;17.79;60.52;100749.58;1664528;86;21068;-79
2022/05/22 10:06:34;;;;;;;2.25;1.00;;;;;;;17.83;60.43;100753.77;1664256;85;21575;-79
2022/05/22 10:09:08;;;;;;;1.98;1.00;;;;;;;17.95;60.56;100756.76;1666244;85;20946;-79
2022/05/22 10:11:46;;;;;;;1.35;0.98;;;;;;;18.15;60.57;100746.26;1666381;86;20973;-79
2022/05/22 10:14:38;;;;;;;3.20;1.22;;;;;;;18.34;60.43;100748.86;1664759;85;20921;-79
2022/05/22 10:17:48;;;;;;;0.98;0.85;;;;;;;18.36;60.21;100762.27;1665500;86;20921;-80
2022/05/22 10:20:44;;;;;;;1.17;0.62;;;;;;;18.28;60.03;100760.92;1665019;85;21095;-79
2022/05/22 10:23:27;;;;;;;0.57;0.33;;;;;;;18.02;59.97;100757.73;1625732;86;21071;-79
2022/05/22 10:26:43;;;;;;;1.00;0.70;;;;;;;17.93;59.90;100762.06;1661752;86;21483;-79
2022/05/22 10:29:38;;;;;;;1.50;0.85;;;;;;;17.90;59.95;100762.20;1664540;86;21076;-79
2022/05/22 10:32:10;;;;;;;1.40;1.02;;;;;;;17.85;59.81;100774.62;1664893;85;21533;-79
2022/05/22 10:34:54;;;;;;;1.10;0.80;;;;;;;17.85;59.69;100772.86;1665290;85;21083;-79
2022/05/22 10:37:44;;;;;;;1.17;0.75;;;;;;;17.84;59.56;100767.69;1664636;85;21100;-78
2022/05/22 10:40:19;;;;;;;1.50;1.15;;;;;;;17.93;59.53;100762.52;1664802;86;21334;-79
2022/05/22 10:42:51;;;;;;;3.05;0.93;;;;;;;18.09;59.60;100756.55;1664403;85;21513;-79
2022/05/22 10:45:34;;;;;;;2.12;0.88;;;;;;;18.32;59.53;100765.95;1663943;85;21537;-79
2022/05/22 10:48:21;;;;;;;1.00;0.62;;;;;;;18.40;59.10;100759.90;1655287;86;21542;-77
2022/05/22 10:51:13;;;;;;;1.87;1.00;;;;;;;18.41;58.95;100750.28;1679263;83;21103;-77
2022/05/22 10:53:52;;;;;;;0.95;0.60;;;;;;;18.44;59.00;100761.92;1702265;84;21068;-78
2022/05/22 10:56:32;;;;;;;1.10;0.75;;;;;;;18.55;59.03;100756.19;1714775;83;21620;-78
2022/05/22 10:59:05;;;;;;;;;;;;;;;18.75;58.92;100763.50;1717115;83;21442;-78
2022/05/22 11:01:40;;;;;;;0.57;0.42;;;;;;;18.84;58.35;100765.69;1715126;83;20162;-78
2022/05/22 11:04:16;;;;;;;0.60;0.42;;;;;;;18.83;58.59;100764.45;1714293;82;21568;-78
2022/05/22 11:06:58;;;;;;;1.05;0.78;;;;;;;18.92;58.59;100767.09;1709528;83;21042;-78
2022/05/22 11:09:29;;;;;;;1.12;0.70;;;;;;;18.98;57.98;100768.11;1698239;83;21048;-78
2022/05/22 11:12:21;;;;;;;0.90;0.62;;;;;;;18.93;58.16;100776.19;1702843;83;21109;-78
2022/05/22 11:14:47;;;;;;;2.70;0.53;;;;;;;18.86;58.10;100764.30;1702896;83;21319;-79
2022/05/22 11:17:22;;;;;;;;;;;;;;;18.87;57.84;100772.55;1716660;83;21524;-78
2022/05/22 11:19:53;;;;;;;1.98;0.65;;;;;;;18.78;57.22;100770.37;1714321;83;20251;-79
2022/05/22 11:22:58;;;;;;;2.77;0.70;;;;;;;18.65;57.68;100770.58;1716640;83;21521;-79
2022/05/22 11:25:38;;;;;;;3.08;0.70;;;;;;;18.53;57.64;100767.58;1713249;83;21088;-80
2022/05/22 11:28:17;;;;;;;2.02;0.70;;;;;;;18.47;57.63;100763.94;1713963;83;21072;-79
2022/05/22 11:30:54;;;;;;;2.85;0.50;;;;;;;18.40;57.46;100770.38;1714316;83;21037;-79
2022/05/22 11:33:42;;;;;;;0.75;0.57;;;;;;;18.35;57.43;100776.28;1714512;83;21100;-79
2022/05/22 11:36:45;;;;;;;1.22;0.70;;;;;;;18.31;57.25;100769.48;1714690;83;21054;-78
2022/05/22 11:39:55;;;;;;;0.95;0.60;;;;;;;18.31;57.33;100772.10;1708757;83;21465;-78
2022/05/22 11:42:37;;;;;;;3.62;0.85;;;;;;;18.34;57.13;100778.97;1686079;84;21032;-78
2022/05/22 11:45:20;;;;;;;0.70;0.35;;;;;;;18.40;57.15;100783.47;1686141;84;21102;-78
2022/05/22 11:48:07;;;;;;;0.80;0.40;;;;;;;18.43;56.97;100782.48;1704104;83;21468;-78
2022/05/22 11:51:09;;;;;;;1.40;0.53;;;;;;;18.50;56.83;100774.73;1714179;83;21572;-78
2022/05/22 11:54:23;;;;;;;1.22;0.62;;;;;;;18.43;56.65;100785.09;1713217;83;20957;-79
2022/05/22 11:57:24;;;;;;;0.75;0.50;;;;;;;18.33;56.54;100782.50;1702095;83;20917;-78
2022/05/22 12:00:12;;;;;;;1.20;0.47;;;;;;;18.10;56.35;100786.17;1713135;82;20945;-78
2022/05/22 12:03:17;;;;;;;1.15;0.42;;;;;;;17.93;56.35;100791.30;1714255;83;20878;-78
2022/05/22 12:05:52;;;;;;;0.82;0.40;;;;;;;17.80;56.30;100794.44;1706815;83;20889;-77
2022/05/22 12:08:43;;;;;;;1.17;0.55;;;;;;;17.71;56.24;100793.98;1707987;83;20941;-77